Terminal Aerodrome Forecast
Issued by NWS

Home | Current Version | Previous Version | Text Only | Print | Product List | Glossary On
Versions: 1 2 3 4 5 6 7 8 9 10 11 12 13 14 15 16 17
000
FTAK31 PAJN 291126
TAFAPG
TAF
PAPG 291126Z 2912/3012 VRB05KT P6SM -SHRA SCT004 BKN012 OVC025
      TEMPO 2912/2916 3SM -SHRA BKN004 OVC012
     FM291800 VRB05KT P6SM -SHRA FEW015 SCT035 OVC050
     FM300200 VRB03KT P6SM VCSH FEW035 OVC060
      AMD LTD TO CLD VIS AND WIND TIL 291500=

USA.gov is the U.S. government's official web portal to all federal, state and local government web resources and services.